createdAt,value
2019-03-20T00:00:57.334Z,11.38
2019-03-20T00:15:54.282Z,11.25
2019-03-20T00:30:54.163Z,11.15
2019-03-20T00:45:54.079Z,11.03
2019-03-20T01:00:54.140Z,10.95
2019-03-20T01:15:53.990Z,10.82
2019-03-20T01:30:54.396Z,10.69
2019-03-20T01:45:52.025Z,10.53
2019-03-20T02:00:51.967Z,10.32
2019-03-20T02:15:51.225Z,10.24
2019-03-20T02:30:51.208Z,10.07
2019-03-20T02:45:55.335Z,9.92
2019-03-20T03:00:51.308Z,9.78
2019-03-20T03:15:51.193Z,9.58
2019-03-20T03:30:51.261Z,9.37
2019-03-20T03:45:52.000Z,9.04
2019-03-20T04:00:52.423Z,9.00
2019-03-20T04:15:53.454Z,8.91
2019-03-20T04:30:51.476Z,8.77
2019-03-20T04:45:52.013Z,8.67
2019-03-20T05:00:51.612Z,8.90
2019-03-20T05:15:51.515Z,9.97
2019-03-20T05:30:51.558Z,12.72
2019-03-20T05:45:50.741Z,14.88
2019-03-20T06:00:50.764Z,16.85
2019-03-20T06:15:51.892Z,18.49
2019-03-20T06:45:51.087Z,21.26
2019-03-20T07:15:51.296Z,21.96
2019-03-20T07:30:50.763Z,22.33
2019-03-20T07:45:51.242Z,23.10
2019-03-20T08:00:51.273Z,23.95
2019-03-20T08:15:51.252Z,24.36
2019-03-20T08:30:53.112Z,24.16
2019-03-20T08:45:53.571Z,23.73
2019-03-20T09:00:53.217Z,23.82
2019-03-20T09:15:51.554Z,24.07
2019-03-20T09:30:51.900Z,24.04
2019-03-20T09:45:52.176Z,23.99
2019-03-20T10:00:51.709Z,24.31
2019-03-20T10:15:51.379Z,21.16
2019-03-20T10:30:52.123Z,21.62
2019-03-20T10:45:50.937Z,22.66
2019-03-20T11:00:51.022Z,22.35
2019-03-20T11:15:50.788Z,22.53
2019-03-20T11:30:50.859Z,20.73
2019-03-20T11:45:51.226Z,21.95
2019-03-20T12:00:51.128Z,21.04
2019-03-20T12:15:51.199Z,19.46
2019-03-20T12:30:51.205Z,18.19
2019-03-20T14:00:54.029Z,17.47
2019-03-20T14:15:51.573Z,17.07
2019-03-20T14:30:51.583Z,16.43
2019-03-20T14:45:50.864Z,16.17
2019-03-20T15:00:55.331Z,15.47
2019-03-20T15:15:55.519Z,15.30
2019-03-20T15:30:50.840Z,14.88
2019-03-20T15:45:53.651Z,14.96
2019-03-20T16:00:51.021Z,14.48
2019-03-20T16:15:51.048Z,14.12
2019-03-20T16:30:50.786Z,13.71
2019-03-20T16:45:51.256Z,13.30
2019-03-20T17:00:51.291Z,12.78
2019-03-20T17:15:54.002Z,12.67
2019-03-20T17:45:56.525Z,12.54
2019-03-20T18:00:53.789Z,12.44
2019-03-20T18:15:54.668Z,12.24
2019-03-20T18:30:53.529Z,12.19
2019-03-20T18:45:52.370Z,12.26
2019-03-20T19:00:52.919Z,12.23
2019-03-20T19:30:51.110Z,12.35
2019-03-20T19:45:51.164Z,12.49
2019-03-20T20:00:52.723Z,12.57
2019-03-20T20:30:51.489Z,12.13
2019-03-20T20:45:53.811Z,12.21
